Terminal Aerodrome Forecast
Issued by NWS Wakefield, VA

Home | Current Version | Previous Version | Text Only | Print | Product List | Glossary On
Versions: 1 2 3 4 5 6 7 8 9 10 11 12 13 14 15 16 17 18 19 20 21 22
446
FTUS41 KAKQ 112338
TAFSBY
TAF
KSBY 112338Z 1200/1224 31013G20KT P6SM SKC
     FM120300 31006KT P6SM SKC
     FM120800 00000KT P6SM SCT250
     FM121500 VRB03KT P6SM BKN100
     FM122100 20006KT 2SM -SN BR OVC025=

USA.gov is the U.S. government's official web portal to all federal, state and local government web resources and services.